Arbor Hill, Iowa
Current Conditions -  °F | °C
As of 1:15 PM on Friday 24 Oct 2014 (Local Time) from KPRO Reporting Station
Overcast Overcast  
Wind Chill: 20°   Ceiling: 1600
Heat Index: 20°   Visibility: 7mi
Dew Point: 16°   Wind: 13mph
Humidity: 77%   Direction: 240°WSW
Pressure: 29.92"   Gusts: NA
Location:  41.5397°N, 94.299°W
Report Text: KPRO 241815Z AUTO 24011KT 7SM OVC016 20/16 A2992 RMK AO2 T01970156
Loading
Personal Weather Stations






























Interactive Weather Map
Tropical Storm Tracking
New forecast layout! Learn more

10-Day Weather Forecast

Advertisements
Track Severe Weather on mobile